Time;durP1;ratioP1;P1;durP2;ratioP2;P2;SDS_P1;SDS_P2;PMS_P1;PMS_P2;Temp;Humidity;BMP_temperature;BMP_pressure;BME280_temperature;BME280_humidity;BME280_pressure;Samples;Min_cycle;Max_cycle;Signal;HPM_P1;HPM_P2
2022/11/12 00:00:41;;;;;;;11.00;7.93;;;9.50;99.90;;;;;;5035450;28;20397;-61
2022/11/12 00:03:27;;;;;;;9.15;7.50;;;9.40;99.90;;;;;;5036398;28;20021;-57
2022/11/12 00:06:13;;;;;;;7.75;6.45;;;9.40;99.90;;;;;;5050423;28;20378;-57
2022/11/12 00:08:59;;;;;;;8.15;6.53;;;9.40;99.90;;;;;;5049542;28;20056;-59
2022/11/12 00:11:44;;;;;;;11.18;6.70;;;9.40;99.90;;;;;;5048620;28;20059;-59
2022/11/12 00:14:30;;;;;;;9.25;6.50;;;9.40;99.90;;;;;;5049513;28;20501;-59
2022/11/12 00:17:16;;;;;;;14.55;11.25;;;9.30;99.90;;;;;;5048799;28;20489;-61
2022/11/12 00:20:03;;;;;;;10.38;8.30;;;9.30;99.90;;;;;;5048714;28;20021;-57
2022/11/12 00:22:49;;;;;;;9.98;8.05;;;9.20;99.90;;;;;;5050743;28;20047;-59
2022/11/12 00:25:35;;;;;;;10.63;7.68;;;9.30;99.90;;;;;;5036359;28;20031;-57
2022/11/12 00:28:21;;;;;;;13.90;9.70;;;9.20;99.90;;;;;;5049673;28;20029;-60
2022/11/12 00:31:09;;;;;;;12.88;9.43;;;9.10;99.90;;;;;;5036618;28;20033;-58
2022/11/12 00:33:55;;;;;;;10.30;8.27;;;9.10;99.90;;;;;;5037778;28;20027;-59
2022/11/12 00:36:41;;;;;;;10.50;8.40;;;9.00;99.90;;;;;;5050216;28;20121;-59
2022/11/12 00:39:28;;;;;;;10.70;8.38;;;8.90;99.90;;;;;;5051087;28;20063;-59
2022/11/12 00:42:14;;;;;;;9.20;7.90;;;8.80;99.90;;;;;;5050340;28;20100;-62
2022/11/12 00:45:00;;;;;;;13.43;9.38;;;8.70;99.90;;;;;;5048935;28;20504;-57
2022/11/12 00:47:46;;;;;;;10.15;8.27;;;8.70;99.90;;;;;;5049442;28;20033;-59
2022/11/12 00:50:32;;;;;;;8.82;7.43;;;8.80;99.90;;;;;;5048539;28;20114;-57
2022/11/12 00:53:18;;;;;;;9.20;7.25;;;8.80;99.90;;;;;;5035467;28;20040;-60
2022/11/12 00:56:05;;;;;;;16.00;10.70;;;8.80;99.90;;;;;;5034070;28;20029;-57
2022/11/12 00:58:51;;;;;;;14.63;11.05;;;8.80;99.90;;;;;;5048752;28;20037;-60
2022/11/12 01:01:38;;;;;;;9.35;7.63;;;8.80;99.90;;;;;;5048313;28;20446;-59
2022/11/12 01:04:24;;;;;;;7.88;6.80;;;8.80;99.90;;;;;;5049740;28;20400;-59
2022/11/12 01:07:10;;;;;;;9.30;7.57;;;8.90;99.90;;;;;;5048744;28;20048;-59
2022/11/12 01:09:56;;;;;;;9.95;7.72;;;8.80;99.90;;;;;;5049298;28;20567;-57
2022/11/12 01:12:42;;;;;;;10.60;7.75;;;8.80;99.90;;;;;;5049233;28;20433;-59
2022/11/12 01:15:28;;;;;;;13.70;9.63;;;8.70;99.90;;;;;;5048799;28;20508;-59
2022/11/12 01:18:14;;;;;;;10.70;8.27;;;8.70;99.90;;;;;;5035579;28;20048;-60
2022/11/12 01:21:01;;;;;;;40.72;25.60;;;8.70;99.90;;;;;;5047524;28;20029;-57
2022/11/12 01:23:47;;;;;;;51.75;29.27;;;8.70;99.90;;;;;;5048231;28;20505;-61
2022/11/12 01:26:33;;;;;;;51.20;29.52;;;8.60;99.90;;;;;;5049117;28;20120;-58
2022/11/12 01:29:19;;;;;;;17.25;12.40;;;8.50;99.90;;;;;;5048733;28;20512;-59
2022/11/12 01:32:06;;;;;;;31.85;19.92;;;8.50;99.90;;;;;;5048469;28;20025;-60
2022/11/12 01:34:52;;;;;;;18.42;12.27;;;8.40;99.90;;;;;;5034766;28;20033;-60
2022/11/12 01:37:38;;;;;;;10.95;8.85;;;8.30;99.90;;;;;;5048034;28;20091;-59
2022/11/12 01:40:24;;;;;;;11.70;8.25;;;8.30;99.90;;;;;;5048530;28;20040;-59
2022/11/12 01:43:13;;;;;;;10.60;8.40;;;8.30;99.90;;;;;;5048564;28;20171;-59
2022/11/12 01:46:02;;;;;;;10.15;8.27;;;8.30;99.90;;;;;;5048535;28;20493;-59
2022/11/12 01:48:50;;;;;;;11.30;8.65;;;8.30;99.90;;;;;;5047839;28;20512;-60
2022/11/12 01:51:41;;;;;;;13.13;8.55;;;8.30;99.90;;;;;;5051436;28;20040;-60
2022/11/12 01:54:28;;;;;;;13.77;8.70;;;8.30;99.90;;;;;;5052718;28;20082;-57
2022/11/12 01:57:15;;;;;;;10.30;8.13;;;8.30;99.90;;;;;;5052480;28;20135;-58
2022/11/12 02:00:06;;;;;;;10.43;8.55;;;8.30;99.90;;;;;;5051643;28;20048;-60
2022/11/12 02:02:56;;;;;;;10.15;7.75;;;8.30;99.90;;;;;;5051643;28;20035;-60
2022/11/12 02:05:42;;;;;;;9.75;7.82;;;8.30;99.90;;;;;;5051548;28;20496;-59
2022/11/12 02:08:29;;;;;;;10.45;8.23;;;8.20;99.90;;;;;;5050986;28;20493;-59
2022/11/12 02:11:18;;;;;;;13.07;8.40;;;8.20;99.90;;;;;;5051808;28;20028;-57
2022/11/12 02:14:04;;;;;;;11.15;8.20;;;8.10;99.90;;;;;;5051280;28;20021;-60
2022/11/12 02:16:50;;;;;;;9.52;7.90;;;8.20;99.90;;;;;;5051467;28;20515;-61
2022/11/12 02:19:36;;;;;;;9.27;7.53;;;8.20;99.90;;;;;;5052141;28;20033;-60
2022/11/12 02:22:22;;;;;;;8.73;7.47;;;8.20;99.90;;;;;;5051805;28;20071;-59
2022/11/12 02:25:16;;;;;;;10.82;7.53;;;8.20;99.90;;;;;;5051705;28;20029;-58
2022/11/12 02:28:06;;;;;;;10.68;7.72;;;8.30;99.90;;;;;;5051235;28;20021;-59
2022/11/12 02:30:51;;;;;;;10.27;7.82;;;8.30;99.90;;;;;;5031622;28;20030;-60
2022/11/12 02:33:37;;;;;;;10.55;7.65;;;8.20;99.90;;;;;;5036822;28;20025;-60
2022/11/12 02:36:24;;;;;;;9.95;7.88;;;8.10;99.90;;;;;;5038565;28;20059;-59
2022/11/12 02:39:10;;;;;;;11.48;8.75;;;8.00;99.90;;;;;;5051110;28;20030;-58
2022/11/12 02:41:56;;;;;;;9.75;7.53;;;8.00;99.90;;;;;;5037803;28;20029;-60
2022/11/12 02:44:42;;;;;;;9.98;8.18;;;8.00;99.90;;;;;;5051563;28;20112;-60
2022/11/12 02:47:28;;;;;;;12.60;7.90;;;8.00;99.90;;;;;;5051115;28;20449;-59
2022/11/12 02:50:14;;;;;;;10.23;8.15;;;7.90;99.90;;;;;;5036132;28;20065;-60
2022/11/12 02:53:00;;;;;;;8.93;8.00;;;8.00;99.90;;;;;;5051091;28;20052;-62
2022/11/12 02:55:46;;;;;;;9.20;7.72;;;7.90;99.90;;;;;;5003795;28;20029;-58
2022/11/12 02:58:32;;;;;;;11.65;7.80;;;7.90;99.90;;;;;;5037174;28;20686;-60
2022/11/12 03:01:18;;;;;;;10.00;8.00;;;7.80;99.90;;;;;;5050283;28;20025;-60
2022/11/12 03:04:04;;;;;;;13.40;8.02;;;7.80;99.90;;;;;;5051017;28;20029;-59
2022/11/12 03:06:51;;;;;;;11.02;7.55;;;7.90;99.90;;;;;;5050351;28;20029;-56
2022/11/12 03:09:37;;;;;;;8.15;7.25;;;7.90;99.90;;;;;;5050482;28;20033;-59
2022/11/12 03:12:22;;;;;;;9.20;7.85;;;7.90;99.90;;;;;;5035946;28;20505;-58
2022/11/12 03:15:09;;;;;;;9.30;7.20;;;7.90;99.90;;;;;;5051339;28;20528;-60
2022/11/12 03:17:57;;;;;;;8.23;7.03;;;7.90;99.90;;;;;;5050082;28;20040;-60
2022/11/12 03:20:43;;;;;;;9.60;7.70;;;7.90;99.90;;;;;;5050207;28;20029;-58
2022/11/12 03:23:29;;;;;;;9.43;8.10;;;7.90;99.90;;;;;;5035766;28;20174;-59
2022/11/12 03:26:15;;;;;;;10.15;6.88;;;7.90;99.90;;;;;;5050838;28;20104;-58
2022/11/12 03:29:01;;;;;;;8.55;6.68;;;7.90;99.90;;;;;;5030156;28;20410;-59
2022/11/12 03:31:47;;;;;;;7.72;6.93;;;8.00;99.90;;;;;;5035503;28;20083;-60
2022/11/12 03:34:33;;;;;;;9.88;7.68;;;8.00;99.90;;;;;;5022771;28;20527;-61
2022/11/12 03:37:19;;;;;;;15.30;10.80;;;8.00;99.90;;;;;;5050382;28;20032;-59
2022/11/12 03:40:05;;;;;;;12.73;7.43;;;8.00;99.90;;;;;;5050790;28;20459;-57
2022/11/12 03:42:55;;;;;;;8.05;7.18;;;8.10;99.90;;;;;;5049713;28;20029;-60
2022/11/12 03:45:41;;;;;;;8.32;6.55;;;8.10;99.90;;;;;;5050768;28;20032;-57
2022/11/12 03:48:27;;;;;;;11.63;7.00;;;8.10;99.90;;;;;;5049219;28;20429;-59
2022/11/12 03:51:15;;;;;;;9.82;7.15;;;8.00;99.90;;;;;;5050283;28;20441;-55
2022/11/12 03:54:01;;;;;;;8.13;7.00;;;7.90;99.90;;;;;;5051161;28;20044;-59
2022/11/12 03:56:46;;;;;;;8.90;6.97;;;7.80;99.90;;;;;;5049235;28;20028;-59
2022/11/12 03:59:32;;;;;;;8.88;6.85;;;7.80;99.90;;;;;;5049945;28;20112;-58
2022/11/12 04:02:18;;;;;;;9.32;7.10;;;7.80;99.90;;;;;;5034466;28;20025;-59
2022/11/12 04:08:35;;;;;;;18.88;11.73;;;7.80;99.90;;;;;;5048403;28;20060;-60
2022/11/12 04:11:20;;;;;;;10.88;7.60;;;7.70;99.90;;;;;;5035282;28;20488;-58
2022/11/12 04:14:07;;;;;;;13.68;8.30;;;7.80;99.90;;;;;;5049239;28;20084;-59
2022/11/12 04:23:02;;;;;;;10.32;7.15;;;7.60;99.90;;;;;;5037535;28;20065;-58
2022/11/12 04:31:57;;;;;;;10.98;7.47;;;7.40;99.90;;;;;;5035226;28;20033;-59
2022/11/12 04:34:43;;;;;;;9.73;6.50;;;7.30;99.90;;;;;;5049451;28;20029;-59
2022/11/12 04:37:43;;;;;;;9.52;7.55;;;7.20;99.90;;;;;;5048763;28;20115;-58
2022/11/12 04:46:38;;;;;;;8.30;6.60;;;7.10;99.90;;;;;;5048904;28;20041;-58
2022/11/12 04:49:24;;;;;;;8.88;7.03;;;7.10;99.90;;;;;;5049170;28;20432;-58
2022/11/12 04:52:10;;;;;;;7.72;6.78;;;7.00;99.90;;;;;;5033692;28;20025;-60
2022/11/12 04:54:56;;;;;;;7.80;6.45;;;7.00;99.90;;;;;;5049245;28;20455;-60
2022/11/12 04:57:42;;;;;;;9.02;7.18;;;6.90;99.90;;;;;;5029399;28;20040;-60
2022/11/12 05:00:28;;;;;;;8.32;7.28;;;6.90;99.90;;;;;;5017836;28;20033;-59
2022/11/12 05:03:14;;;;;;;8.23;6.93;;;6.90;99.90;;;;;;5048196;28;20512;-58
2022/11/12 05:06:50;;;;;;;8.18;6.85;;;6.90;99.90;;;;;;5048027;28;20166;-56
2022/11/12 05:09:13;;;;;;;8.13;7.25;;;6.80;99.90;;;;;;5048288;28;20497;-61
2022/11/12 05:12:00;;;;;;;9.35;6.85;;;6.80;99.90;;;;;;5048713;28;20037;-62
2022/11/12 05:14:45;;;;;;;7.30;6.57;;;6.80;99.90;;;;;;5034165;28;20660;-57
2022/11/12 05:17:31;;;;;;;7.68;6.50;;;6.80;99.90;;;;;;5048212;28;20029;-59
2022/11/12 05:20:17;;;;;;;8.68;7.05;;;6.70;99.90;;;;;;5034338;28;20046;-58
2022/11/12 05:23:03;;;;;;;9.38;7.18;;;6.70;99.90;;;;;;5044251;28;20033;-58
2022/11/12 05:25:49;;;;;;;8.13;6.40;;;6.70;99.90;;;;;;5052632;28;20033;-58
2022/11/12 05:28:35;;;;;;;8.38;7.25;;;6.80;99.90;;;;;;5052808;28;20086;-58
2022/11/12 05:31:21;;;;;;;9.65;7.50;;;6.80;99.90;;;;;;5052117;28;20112;-59
2022/11/12 05:34:07;;;;;;;10.15;6.82;;;6.80;99.90;;;;;;5052665;28;20021;-59
2022/11/12 05:36:53;;;;;;;8.38;7.07;;;6.80;99.90;;;;;;5051914;28;20060;-60
2022/11/12 05:39:40;;;;;;;7.95;6.63;;;6.80;99.90;;;;;;5037931;28;20037;-58
2022/11/12 05:42:28;;;;;;;8.02;6.55;;;6.80;99.90;;;;;;5052418;28;20025;-58
2022/11/12 05:45:14;;;;;;;8.20;7.40;;;6.70;99.90;;;;;;5051986;28;20036;-58
2022/11/12 05:48:00;;;;;;;8.95;6.95;;;6.70;99.90;;;;;;5053027;28;20035;-57
2022/11/12 05:50:51;;;;;;;8.45;7.05;;;6.70;99.90;;;;;;5050315;28;20040;-58
2022/11/12 05:53:37;;;;;;;9.38;7.07;;;6.60;99.90;;;;;;5053534;28;20527;-60
2022/11/12 05:56:23;;;;;;;8.50;7.20;;;6.60;99.90;;;;;;5022379;28;20698;-60
2022/11/12 05:59:10;;;;;;;8.88;7.32;;;6.60;99.90;;;;;;5039668;28;20745;-58
2022/11/12 06:01:56;;;;;;;8.65;7.63;;;6.60;99.90;;;;;;5056471;28;20057;-60
2022/11/12 06:04:42;;;;;;;9.93;7.93;;;6.60;99.90;;;;;;5052013;28;20033;-57
2022/11/12 06:07:28;;;;;;;9.95;7.53;;;6.60;99.90;;;;;;5052728;28;20076;-58
2022/11/12 06:10:14;;;;;;;8.85;7.32;;;6.60;99.90;;;;;;5050990;28;20108;-54
2022/11/12 06:13:00;;;;;;;7.68;6.57;;;6.60;99.90;;;;;;5039048;28;20029;-58
2022/11/12 06:15:46;;;;;;;8.75;7.85;;;6.60;99.90;;;;;;5038536;28;20079;-60
2022/11/12 06:18:32;;;;;;;11.13;8.25;;;6.60;99.90;;;;;;5052722;28;20159;-59
2022/11/12 06:21:18;;;;;;;16.45;14.68;;;6.50;99.90;;;;;;5051399;28;20029;-60
2022/11/12 06:24:04;;;;;;;13.75;11.63;;;6.50;99.90;;;;;;5045520;28;20040;-60
2022/11/12 06:26:50;;;;;;;11.70;9.05;;;6.50;99.90;;;;;;5051283;28;20108;-60
2022/11/12 06:29:37;;;;;;;9.82;7.63;;;6.50;99.90;;;;;;5037792;28;20044;-61
2022/11/12 06:32:24;;;;;;;10.77;7.13;;;6.50;99.90;;;;;;5037864;28;20025;-60
2022/11/12 06:35:09;;;;;;;11.70;8.50;;;6.60;99.90;;;;;;5037712;28;20043;-58
2022/11/12 06:37:55;;;;;;;11.02;8.15;;;6.50;99.90;;;;;;5037115;28;20429;-59
2022/11/12 06:40:41;;;;;;;9.10;7.47;;;6.50;99.90;;;;;;5036745;28;20033;-58
2022/11/12 06:43:30;;;;;;;7.30;6.60;;;6.50;99.90;;;;;;5051571;28;20064;-60
2022/11/12 06:46:16;;;;;;;10.45;7.03;;;6.50;99.90;;;;;;5031480;28;20048;-61
2022/11/12 06:49:02;;;;;;;8.20;7.13;;;6.50;99.90;;;;;;5035312;28;20037;-60
2022/11/12 06:51:52;;;;;;;7.85;6.68;;;6.50;99.90;;;;;;5051165;28;20044;-60
2022/11/12 06:54:38;;;;;;;9.25;6.97;;;6.50;99.90;;;;;;5050542;28;20105;-60
2022/11/12 06:57:23;;;;;;;9.80;6.80;;;6.50;99.90;;;;;;5050972;28;20023;-58
2022/11/12 07:00:10;;;;;;;8.88;7.03;;;6.50;99.90;;;;;;5031749;28;20095;-60
2022/11/12 07:02:56;;;;;;;11.02;7.00;;;6.60;99.90;;;;;;5033775;28;20052;-59
2022/11/12 07:05:42;;;;;;;9.65;7.30;;;6.60;99.90;;;;;;5037937;28;20448;-60
2022/11/12 07:08:28;;;;;;;9.23;7.00;;;6.60;99.90;;;;;;5036248;28;20449;-58
2022/11/12 07:11:16;;;;;;;7.78;6.82;;;6.70;99.90;;;;;;5036953;28;20401;-58
2022/11/12 07:14:05;;;;;;;8.82;7.20;;;6.70;99.90;;;;;;5051058;28;20021;-60
2022/11/12 07:16:51;;;;;;;9.50;6.90;;;6.70;99.90;;;;;;5037401;28;20055;-59
2022/11/12 07:19:37;;;;;;;7.80;6.93;;;6.70;99.90;;;;;;5050636;28;20083;-57
2022/11/12 07:22:22;;;;;;;8.23;7.03;;;6.70;99.90;;;;;;5050277;28;20108;-56
2022/11/12 07:25:08;;;;;;;8.40;6.60;;;6.70;99.90;;;;;;5050725;28;20025;-55
2022/11/12 07:27:54;;;;;;;9.10;6.45;;;6.70;99.90;;;;;;5036542;28;20033;-61
2022/11/12 07:30:40;;;;;;;10.32;7.15;;;6.70;99.90;;;;;;5037060;28;20036;-57
2022/11/12 07:33:27;;;;;;;8.50;7.10;;;6.80;99.90;;;;;;5036295;28;20119;-57
2022/11/12 07:36:16;;;;;;;15.93;8.10;;;6.80;99.90;;;;;;5030729;28;20563;-56
2022/11/12 07:39:02;;;;;;;10.80;7.38;;;6.90;99.90;;;;;;5036163;28;20043;-61
2022/11/12 07:41:48;;;;;;;10.05;6.50;;;6.90;99.90;;;;;;5037900;28;20029;-55
2022/11/12 07:44:34;;;;;;;9.80;7.80;;;7.00;99.90;;;;;;5050716;28;20056;-55
2022/11/12 07:47:20;;;;;;;10.50;7.93;;;7.10;99.90;;;;;;5049185;28;20032;-55
2022/11/12 07:50:06;;;;;;;11.57;7.70;;;7.10;99.90;;;;;;5050199;28;20080;-59
2022/11/12 07:52:52;;;;;;;10.85;7.70;;;7.10;99.90;;;;;;5035372;28;20025;-56
2022/11/12 07:55:38;;;;;;;8.15;7.30;;;7.20;99.90;;;;;;5037007;28;20055;-54
2022/11/12 07:58:24;;;;;;;10.10;7.85;;;7.20;99.90;;;;;;5030111;28;20172;-55
2022/11/12 08:01:24;;;;;;;9.35;7.47;;;7.30;99.90;;;;;;5025191;28;20025;-58
2022/11/12 08:04:11;;;;;;;12.57;8.43;;;7.30;99.90;;;;;;5050251;28;20493;-56
2022/11/12 08:06:56;;;;;;;20.23;14.70;;;7.50;99.90;;;;;;5036252;28;20571;-60
2022/11/12 08:09:42;;;;;;;18.60;12.70;;;7.50;99.90;;;;;;5016320;28;20068;-59
2022/11/12 08:12:28;;;;;;;16.33;11.55;;;7.60;99.90;;;;;;5048037;28;20453;-58
2022/11/12 08:15:16;;;;;;;11.52;9.02;;;7.60;99.90;;;;;;5049627;28;20033;-57
2022/11/12 08:18:03;;;;;;;26.55;18.55;;;7.70;99.90;;;;;;5035423;28;20028;-54
2022/11/12 08:20:48;;;;;;;12.27;10.20;;;7.80;99.90;;;;;;5035920;28;20099;-57
2022/11/12 08:23:34;;;;;;;11.55;9.85;;;7.80;99.90;;;;;;5048508;28;20029;-56
2022/11/12 08:26:20;;;;;;;10.73;9.52;;;7.80;99.90;;;;;;5034182;28;20040;-58
2022/11/12 08:29:06;;;;;;;15.10;10.07;;;7.90;99.90;;;;;;5036401;28;20036;-60
2022/11/12 08:31:52;;;;;;;11.75;8.63;;;7.90;99.90;;;;;;5035347;28;20037;-59
2022/11/12 08:34:40;;;;;;;11.70;9.18;;;7.90;99.90;;;;;;5048582;28;20032;-60
2022/11/12 08:37:26;;;;;;;13.10;8.50;;;7.90;99.90;;;;;;5048426;28;20119;-58
2022/11/12 08:40:12;;;;;;;12.63;9.55;;;8.00;99.90;;;;;;5049886;28;20409;-59
2022/11/12 08:43:04;;;;;;;15.25;9.95;;;8.10;99.90;;;;;;5050001;28;20147;-55
2022/11/12 08:45:49;;;;;;;12.05;9.70;;;8.20;99.90;;;;;;5036408;28;20033;-60
2022/11/12 08:48:36;;;;;;;10.68;9.00;;;8.30;99.90;;;;;;5048919;28;20441;-61
2022/11/12 08:51:24;;;;;;;10.85;8.70;;;8.30;99.90;;;;;;5034275;28;20409;-55
2022/11/12 08:54:10;;;;;;;10.18;8.80;;;8.30;99.90;;;;;;5049703;28;20062;-60
2022/11/12 08:56:56;;;;;;;10.02;8.85;;;8.30;99.90;;;;;;5029557;28;20041;-62
2022/11/12 08:59:42;;;;;;;9.25;8.10;;;8.30;99.90;;;;;;5030983;28;20036;-57
2022/11/12 09:02:28;;;;;;;12.10;8.68;;;8.40;99.90;;;;;;5035148;28;20383;-61
2022/11/12 09:05:14;;;;;;;12.73;9.95;;;8.40;99.90;;;;;;5048659;28;20661;-56
2022/11/12 09:08:02;;;;;;;12.02;9.77;;;8.50;99.90;;;;;;5048303;28;20029;-59
2022/11/12 09:10:49;;;;;;;13.18;9.93;;;8.60;99.90;;;;;;5048223;28;20032;-59
2022/11/12 09:13:35;;;;;;;13.18;9.05;;;8.60;99.90;;;;;;5034548;28;20036;-58
2022/11/12 09:16:22;;;;;;;12.18;9.45;;;8.60;99.90;;;;;;5048881;28;20025;-58
2022/11/12 09:19:08;;;;;;;12.05;9.50;;;8.70;99.90;;;;;;5035469;28;20803;-61
2022/11/12 09:21:54;;;;;;;11.40;9.57;;;8.80;99.90;;;;;;5035767;28;20029;-61
2022/11/12 09:24:40;;;;;;;19.90;14.45;;;8.90;99.90;;;;;;5029372;28;20057;-59
2022/11/12 09:27:27;;;;;;;28.20;18.95;;;9.00;99.90;;;;;;5032481;28;20457;-57
2022/11/12 09:30:13;;;;;;;58.15;34.63;;;9.00;99.90;;;;;;5021371;28;20029;-59
2022/11/12 09:32:59;;;;;;;28.02;18.05;;;9.10;99.90;;;;;;5048150;28;20021;-59
2022/11/12 09:35:46;;;;;;;17.02;12.88;;;9.20;99.90;;;;;;5021392;28;20087;-59
2022/11/12 09:38:32;;;;;;;15.77;12.35;;;9.20;99.90;;;;;;5048864;28;20025;-56
2022/11/12 09:41:24;;;;;;;14.00;12.13;;;9.20;99.90;;;;;;5048734;28;20112;-56
2022/11/12 09:44:17;;;;;;;13.88;11.00;;;9.30;99.90;;;;;;5034137;28;20389;-53
2022/11/12 09:47:11;;;;;;;14.68;9.98;;;9.40;99.90;;;;;;5033952;28;20408;-62
2022/11/12 09:50:28;;;;;;;15.07;10.67;;;9.40;99.90;;;;;;5028822;28;20029;-60
2022/11/12 09:53:38;;;;;;;11.55;10.13;;;9.30;99.90;;;;;;5048518;28;20180;-58
2022/11/12 09:56:27;;;;;;;15.30;11.38;;;9.50;99.90;;;;;;5039161;28;20025;-55
2022/11/12 09:59:13;;;;;;;15.63;10.68;;;9.50;99.90;;;;;;5048066;28;20033;-58
2022/11/12 10:02:22;;;;;;;16.42;11.48;;;9.30;99.90;;;;;;5073674;22;20041;-74
2022/11/12 10:05:28;;;;;;;14.40;11.80;;;9.40;99.90;;;;;;4997869;28;20030;-73
2022/11/12 10:08:26;;;;;;;15.30;12.05;;;9.10;99.90;;;;;;5010403;28;20058;-73
2022/11/12 10:11:30;;;;;;;16.48;12.88;;;9.20;99.90;;;;;;4979078;28;20031;-74
2022/11/12 10:14:39;;;;;;;18.35;12.15;;;9.40;99.90;;;;;;4994370;28;20478;-75
2022/11/12 10:18:00;;;;;;;14.18;11.40;;;9.50;99.90;;;;;;4974847;28;20460;-76
2022/11/12 10:21:12;;;;;;;14.43;10.40;;;9.70;99.90;;;;;;4982402;28;20042;-73
2022/11/12 10:23:59;;;;;;;13.57;11.18;;;9.80;99.90;;;;;;5014207;28;20034;-75
2022/11/12 10:26:47;;;;;;;13.32;10.85;;;10.00;99.90;;;;;;5012176;28;20038;-75
2022/11/12 10:29:48;;;;;;;14.32;11.27;;;10.10;99.90;;;;;;5010291;28;20078;-74
2022/11/12 10:32:36;;;;;;;28.30;17.77;;;10.10;99.90;;;;;;4999491;28;20026;-74
2022/11/12 10:35:23;;;;;;;28.55;19.92;;;10.20;99.90;;;;;;5007773;28;20034;-74
2022/11/12 10:38:18;;;;;;;38.45;24.50;;;10.30;99.90;;;;;;4980009;28;20039;-72
2022/11/12 10:41:29;;;;;;;42.60;27.75;;;10.40;99.90;;;;;;4991427;28;20034;-76
2022/11/12 10:44:24;;;;;;;30.05;20.48;;;10.50;99.90;;;;;;4987753;28;20516;-74
2022/11/12 10:47:41;;;;;;;17.60;14.13;;;10.60;99.90;;;;;;4975398;28;20039;-75
2022/11/12 10:50:40;;;;;;;17.27;12.20;;;10.70;99.90;;;;;;4984638;28;20073;-74
2022/11/12 10:53:39;;;;;;;14.52;12.27;;;10.80;99.90;;;;;;4993672;28;20105;-74
2022/11/12 10:56:30;;;;;;;14.10;11.48;;;10.80;99.90;;;;;;4996552;28;20453;-75
2022/11/12 10:59:21;;;;;;;12.15;10.90;;;10.90;99.90;;;;;;4996036;28;20045;-76
2022/11/12 11:02:17;;;;;;;15.93;11.70;;;10.90;99.90;;;;;;4995126;28;20023;-74
2022/11/12 11:05:31;;;;;;;16.73;12.30;;;11.00;99.90;;;;;;4987748;28;20407;-73
2022/11/12 11:08:50;;;;;;;18.15;13.52;;;11.10;99.90;;;;;;4976277;28;20018;-73
2022/11/12 11:11:36;;;;;;;16.88;12.50;;;11.10;99.90;;;;;;4993540;28;20030;-75
2022/11/12 11:14:24;;;;;;;14.00;11.52;;;11.20;99.90;;;;;;4993739;28;20026;-75
2022/11/12 11:17:18;;;;;;;18.25;12.93;;;11.10;99.90;;;;;;4994140;28;20092;-76
2022/11/12 11:20:28;;;;;;;15.13;13.00;;;11.20;99.90;;;;;;5011333;28;20515;-76
2022/11/12 11:23:22;;;;;;;13.43;11.60;;;11.30;99.90;;;;;;4959871;28;20027;-74
2022/11/12 11:26:36;;;;;;;14.85;11.07;;;11.40;99.90;;;;;;4975955;28;20017;-74
2022/11/12 11:29:43;;;;;;;14.38;10.50;;;11.30;99.90;;;;;;4974502;28;20703;-76
2022/11/12 11:32:50;;;;;;;13.68;11.00;;;11.40;99.90;;;;;;4992491;28;20441;-74
2022/11/12 11:35:36;;;;;;;13.50;11.90;;;11.60;99.90;;;;;;4996045;28;20026;-74
2022/11/12 11:38:37;;;;;;;14.98;12.60;;;11.60;99.90;;;;;;4992847;28;20022;-74
2022/11/12 11:41:49;;;;;;;13.73;11.73;;;11.60;99.90;;;;;;5011345;28;20033;-75
2022/11/12 11:44:48;;;;;;;14.35;12.68;;;11.70;99.90;;;;;;4994403;28;20506;-73
2022/11/12 11:47:53;;;;;;;17.65;11.98;;;11.80;99.90;;;;;;4977857;28;20027;-73
2022/11/12 11:50:51;;;;;;;22.95;14.23;;;11.70;99.90;;;;;;4989577;28;20416;-76
2022/11/12 11:53:54;;;;;;;19.88;15.52;;;11.70;99.90;;;;;;5011876;28;20184;-77
2022/11/12 11:56:42;;;;;;;15.55;12.52;;;11.70;99.90;;;;;;4997822;28;20539;-75
2022/11/12 11:59:31;;;;;;;14.95;12.02;;;11.70;99.90;;;;;;4997065;28;20556;-74
2022/11/12 12:02:59;;;;;;;16.90;11.98;;;11.70;99.90;;;;;;4997271;28;20053;-76
2022/11/12 12:06:00;;;;;;;14.43;11.88;;;11.70;99.90;;;;;;4992530;28;20104;-76
2022/11/12 12:09:05;;;;;;;28.13;22.63;;;11.70;99.90;;;;;;4991407;28;20030;-76
2022/11/12 12:12:01;;;;;;;14.38;12.77;;;11.60;99.90;;;;;;4995230;28;20085;-74
2022/11/12 12:15:10;;;;;;;15.48;12.85;;;11.70;99.90;;;;;;5009918;28;20065;-74
2022/11/12 12:18:07;;;;;;;16.00;12.45;;;11.60;99.90;;;;;;5011345;28;20054;-74
2022/11/12 12:21:14;;;;;;;20.77;14.48;;;11.60;99.90;;;;;;5009831;28;20033;-75
2022/11/12 12:24:02;;;;;;;14.85;12.18;;;11.60;99.90;;;;;;4997021;28;20030;-74
2022/11/12 12:26:55;;;;;;;16.10;12.80;;;11.60;99.90;;;;;;4972653;28;20050;-75
2022/11/12 12:29:49;;;;;;;23.63;13.95;;;11.70;99.90;;;;;;4974314;28;20405;-75
2022/11/12 12:32:48;;;;;;;17.38;13.68;;;11.70;99.90;;;;;;4991120;28;20552;-75
2022/11/12 12:35:43;;;;;;;17.08;12.93;;;11.80;99.90;;;;;;4992919;28;20050;-75
2022/11/12 12:38:47;;;;;;;;;;;11.80;99.90;;;;;;4991966;28;20029;-74
2022/11/12 12:41:45;;;;;;;16.92;12.88;;;11.80;99.90;;;;;;4990915;28;19910;-74
2022/11/12 12:45:00;;;;;;;19.42;14.82;;;12.00;99.90;;;;;;4991484;28;20046;-75
2022/11/12 12:47:47;;;;;;;20.27;16.35;;;12.00;99.90;;;;;;4991861;28;20334;-75
2022/11/12 12:50:36;;;;;;;21.55;17.58;;;12.30;99.90;;;;;;4990714;28;20030;-74
2022/11/12 12:53:28;;;;;;;23.90;16.48;;;12.50;99.90;;;;;;4977565;28;20023;-75
2022/11/12 12:56:14;;;;;;;24.05;15.88;;;12.70;99.90;;;;;;4976067;28;20478;-75
2022/11/12 12:59:06;;;;;;;18.23;13.98;;;12.80;99.90;;;;;;4991082;28;20074;-76
2022/11/12 13:02:01;;;;;;;16.85;13.52;;;12.80;99.90;;;;;;4989158;28;20049;-77
2022/11/12 13:04:57;;;;;;;18.63;14.60;;;12.90;99.90;;;;;;4976629;28;20023;-79
2022/11/12 13:07:44;;;;;;;;;;;13.00;99.90;;;;;;4991804;28;20042;-75
2022/11/12 13:10:43;;;;;;;15.65;12.93;;;13.10;99.90;;;;;;4990052;28;19922;-74
2022/11/12 13:13:34;;;;;;;18.80;13.98;;;13.20;99.90;;;;;;4989138;28;20038;-75
2022/11/12 13:16:49;;;;;;;17.15;15.30;;;13.40;99.90;;;;;;4963996;28;20031;-75
2022/11/12 13:19:56;;;;;;;16.67;13.68;;;13.70;99.90;;;;;;4989803;28;20030;-75
2022/11/12 13:22:42;;;;;;;18.45;13.90;;;14.10;99.90;;;;;;4961989;28;20113;-75
2022/11/12 13:25:30;;;;;;;18.33;14.38;;;14.20;99.60;;;;;;4977859;28;20030;-76
2022/11/12 13:28:16;;;;;;;17.92;15.63;;;14.20;99.30;;;;;;4979564;28;20026;-74
2022/11/12 13:31:03;;;;;;;16.35;14.15;;;14.00;99.40;;;;;;5001317;28;20366;-75
2022/11/12 13:33:49;;;;;;;18.42;15.00;;;14.00;99.90;;;;;;4980063;28;20486;-76
2022/11/12 13:36:35;;;;;;;17.23;13.98;;;14.10;99.70;;;;;;4999340;28;20133;-75
2022/11/12 13:39:22;;;;;;;16.67;14.13;;;14.30;99.70;;;;;;4984543;28;20595;-76
2022/11/12 13:45:28;;;;;;;17.33;14.55;;;14.60;98.60;;;;;;4994632;28;20022;-74
2022/11/12 13:48:28;;;;;;;16.92;13.90;;;14.50;98.60;;;;;;4978790;28;20035;-74
2022/11/12 13:51:19;;;;;;;16.73;13.75;;;14.50;98.60;;;;;;4989149;28;20050;-76
2022/11/12 13:54:25;;;;;;;15.13;12.98;;;14.30;98.80;;;;;;4993220;28;20489;-76
2022/11/12 13:57:18;;;;;;;18.95;17.00;;;14.20;98.90;;;;;;4992274;28;20026;-77
2022/11/12 14:00:24;;;;;;;18.27;15.82;;;14.10;99.00;;;;;;4992965;28;20414;-76
2022/11/12 14:03:16;;;;;;;19.70;16.63;;;14.10;99.10;;;;;;4976424;28;20058;-75
2022/11/12 14:06:12;;;;;;;21.90;17.00;;;14.30;98.90;;;;;;4965612;28;20088;-76
2022/11/12 14:09:30;;;;;;;21.50;16.63;;;14.70;98.40;;;;;;4978036;28;20078;-73
2022/11/12 14:12:19;;;;;;;21.33;16.95;;;15.00;97.90;;;;;;4990124;28;20046;-74
2022/11/12 14:15:27;;;;;;;20.55;16.92;;;15.30;97.30;;;;;;4984168;28;20037;-75
2022/11/12 14:18:25;;;;;;;19.23;16.55;;;15.30;96.90;;;;;;4989333;28;20023;-74
2022/11/12 14:21:17;;;;;;;19.88;16.90;;;15.20;97.00;;;;;;4993596;28;20026;-75
2022/11/12 14:24:04;;;;;;;20.23;17.02;;;15.00;97.10;;;;;;4979507;28;20443;-77
2022/11/12 14:26:50;;;;;;;18.75;16.00;;;14.80;97.30;;;;;;4991093;28;20037;-75
2022/11/12 14:29:36;;;;;;;17.10;15.13;;;14.40;97.80;;;;;;4977059;28;20538;-75
2022/11/12 14:32:23;;;;;;;20.33;15.35;;;14.10;98.00;;;;;;4993285;28;20128;-75
2022/11/12 14:35:23;;;;;;;22.48;15.98;;;13.90;98.40;;;;;;4964090;28;20401;-76
2022/11/12 14:38:26;;;;;;;18.98;13.90;;;13.60;98.80;;;;;;4978886;28;20038;-75
2022/11/12 14:41:22;;;;;;;17.00;13.68;;;13.40;99.20;;;;;;4989555;28;20038;-75
2022/11/12 14:44:16;;;;;;;17.90;13.23;;;13.20;99.40;;;;;;4992393;28;20026;-77
2022/11/12 14:47:02;;;;;;;24.55;16.73;;;13.00;99.60;;;;;;4978568;28;20093;-74
2022/11/12 14:49:49;;;;;;;21.45;16.80;;;12.80;99.90;;;;;;4987262;28;20077;-75
2022/11/12 14:52:43;;;;;;;20.55;15.77;;;12.60;99.90;;;;;;4993807;28;20474;-76
2022/11/12 14:55:33;;;;;;;18.60;15.57;;;12.50;99.90;;;;;;4977717;28;20034;-77
2022/11/12 14:58:21;;;;;;;21.00;14.90;;;12.40;99.90;;;;;;4987565;28;20284;-75
2022/11/12 15:01:37;;;;;;;17.90;14.23;;;12.30;99.90;;;;;;4989321;28;20030;-76
2022/11/12 15:04:24;;;;;;;18.15;15.25;;;12.20;99.90;;;;;;4973214;28;20534;-75
2022/11/12 15:07:24;;;;;;;23.35;19.25;;;12.10;99.90;;;;;;4978578;28;20034;-76